Sugar Grove, North Carolina
Current Conditions -  °F | °C
As of 11:15 AM on Thursday 29 Jan 2015 (Local Time) from KTNB Reporting Station
Clear Clear  
Wind Chill: 31°   Ceiling: Unl
Heat Index: 38°   Visibility: 10mi
Dew Point: 16°   Wind: 9mph
Humidity: 41%   Direction: 180°S
Pressure: 30.14"   Gusts: 17mph
Location:  36.26°N, 81.79°W
Report Text: KTNB 291615Z AUTO 18008G15KT 140V210 10SM CLR 03/M09 A3014 RMK AO2 T00321091
Loading
Personal Weather Stations






























Interactive Weather Map New forecast layout! Learn more

10-Day Weather Forecast

Advertisements
Track Severe Weather on mobile